Stockholm, Sweden

08:14 AM CET on December 13, 2017 (GMT +0100)
Stockholm | | Change Station

Elev 108 ft 59.33 °N, 18.07 °E | Updated 9 minutes ago

Klart
Klart
23.5 °F
Feels Like 24 °F
N
1.2
Vind Växlande Vind from SV
Gusts 4.3 miles/tim

Idag
High -- | Low -- °F
--% Chance of Precip.
Yesterday
High -- | Low -- °F
Precip. -- tum
Lufttryck 29.44 tum
Sikt -9999.0 miles
Molnigt
Vindavkylning 24 °F
Daggpunkt 22 °F
Luftfuktighet 92%
Rainfall 0.00 tum
Snow Depth Not available.
8:36 AM 2:47 PM
Fjärde kvarteret, 21% visible
METAR ESSB 130650Z 20006KT CAVOK M04/M05 Q0997 R30/19//65
Lufttryck 29.44 tum
Sikt -9999.0 miles
Molnigt
Vindavkylning 24 °F
Daggpunkt 22 °F
Luftfuktighet 92%
Rainfall 0.00 tum
Snow Depth Not available.
8:36 AM 2:47 PM
Fjärde kvarteret, 21% visible
METAR ESSB 130650Z 20006KT CAVOK M04/M05 Q0997 R30/19//65

Get Severe Weather Alerts

Thanks for signing up!

Be on the lookout for a verification email in your inbox.

You'll start receiving the daily forecast at 6 AM.

×

10-Day Weather Forecast

×

Almanac

Astronomi

Dec. 13, 2017 Rise Set
Actual Time
Civil Twilight
Nautical Twilight
Astronomical Twilight
Månen
Length Of Visible Light
Dagens längd
Tomorrow will be .
, % of the Moon is Illuminated

Today's Extremes

Country Highs Country Lows

Community

WunderPhotos

Category 6

Welcome to Category 6. This is the collective home for Weather Underground's featured writeups by Dr. Jeff Masters (right), Bob Henson (left), Chris Burt, and other regular contributors.

Nearby

Air Quality

  Air Quality AQ Index Pollutant
Not available.

Snödjup

Station Depth Elevation

Earthquake Activity

Stad Distance Mag. Time & Date
Minimum magnitude displayed is 2.5.

Coastal Water Temperatures

Plats Temperatur

Stations

Nearby Weather Stations

Station Location Temp Vindavkylning Daggpunkt Luftfuktighet Vind Precip. Elev Uppdaterad Type